createdAt,value
2022-08-05T00:01:36.160Z,87.20
2022-08-05T00:04:17.049Z,87.30
2022-08-05T00:06:47.265Z,87.10
2022-08-05T00:09:19.839Z,87.00
2022-08-05T00:11:56.190Z,87.00
2022-08-05T00:14:29.166Z,87.50
2022-08-05T00:17:01.662Z,87.30
2022-08-05T00:19:33.171Z,87.20
2022-08-05T00:22:02.273Z,87.20
2022-08-05T00:24:31.123Z,87.20
2022-08-05T00:27:01.049Z,87.30
2022-08-05T00:29:38.179Z,87.60
2022-08-05T00:32:12.651Z,87.90
2022-08-05T00:35:03.941Z,87.70
2022-08-05T00:37:35.583Z,87.50
2022-08-05T00:40:27.172Z,87.80
2022-08-05T00:42:59.815Z,87.70
2022-08-05T00:45:39.075Z,87.70
2022-08-05T00:48:13.142Z,87.70
2022-08-05T00:50:44.229Z,87.60
2022-08-05T00:53:44.773Z,87.90
2022-08-05T00:56:04.205Z,87.80
2022-08-05T00:58:33.652Z,88.00
2022-08-05T01:01:01.778Z,87.90
2022-08-05T01:03:36.952Z,88.20
2022-08-05T01:06:05.423Z,88.40
2022-08-05T01:08:43.070Z,88.60
2022-08-05T01:11:21.802Z,88.30
2022-08-05T01:14:08.832Z,88.60
2022-08-05T01:16:44.204Z,90.20
2022-08-05T01:19:46.195Z,92.40
2022-08-05T01:22:28.103Z,93.80
2022-08-05T01:25:40.490Z,94.40
2022-08-05T01:28:25.703Z,94.80
2022-08-05T01:30:57.969Z,94.90
2022-08-05T01:33:35.369Z,95.10
2022-08-05T01:36:13.118Z,95.30
2022-08-05T01:38:49.618Z,95.90
2022-08-05T01:41:25.523Z,95.90
2022-08-05T01:43:57.341Z,95.80
2022-08-05T01:46:43.091Z,95.80
2022-08-05T01:49:26.461Z,95.90
2022-08-05T01:52:17.654Z,96.00
2022-08-05T01:54:52.703Z,96.10
2022-08-05T01:58:11.544Z,96.10
2022-08-05T02:00:17.254Z,96.30
2022-08-05T02:02:54.691Z,96.40
2022-08-05T02:05:29.198Z,96.30
2022-08-05T02:08:01.305Z,96.20
2022-08-05T02:10:35.390Z,96.10
2022-08-05T02:13:16.269Z,96.00
2022-08-05T02:15:50.786Z,96.00
2022-08-05T02:18:31.727Z,95.90
2022-08-05T02:21:13.236Z,95.70
2022-08-05T02:23:47.252Z,95.90
2022-08-05T02:26:21.868Z,96.00
2022-08-05T02:28:51.044Z,96.10
2022-08-05T02:31:24.488Z,96.20
2022-08-05T02:33:57.268Z,96.30
2022-08-05T02:36:27.934Z,96.60
2022-08-05T02:39:02.610Z,96.70
2022-08-05T02:41:36.232Z,96.50
2022-08-05T02:44:24.612Z,96.70
2022-08-05T02:47:00.180Z,96.90
2022-08-05T02:49:36.411Z,97.10
2022-08-05T02:52:08.915Z,96.90
2022-08-05T02:54:41.414Z,97.00
2022-08-05T02:58:11.718Z,97.10
2022-08-05T03:00:02.687Z,97.20
2022-08-05T03:02:37.766Z,97.30
2022-08-05T03:05:08.586Z,97.60
2022-08-05T03:08:00.959Z,97.60
2022-08-05T03:10:28.869Z,97.50
2022-08-05T03:15:24.574Z,97.30
2022-08-05T03:17:57.700Z,97.40
2022-08-05T03:20:26.478Z,97.60
2022-08-05T03:22:57.651Z,97.60
2022-08-05T03:25:33.016Z,97.70
2022-08-05T03:28:03.623Z,98.10
2022-08-05T03:30:34.056Z,97.80
2022-08-05T03:33:06.177Z,98.00
2022-08-05T03:35:41.147Z,98.00
2022-08-05T03:38:12.490Z,98.10
2022-08-05T03:40:45.366Z,98.10
2022-08-05T03:44:08.336Z,98.10
2022-08-05T03:46:05.537Z,98.20
2022-08-05T03:48:38.057Z,98.10
2022-08-05T03:52:37.264Z,98.20
2022-08-05T03:55:51.689Z,98.30
2022-08-05T03:56:58.927Z,98.30
2022-08-05T03:59:46.912Z,98.40
2022-08-05T04:02:38.977Z,98.50
2022-08-05T04:05:11.794Z,98.60
2022-08-05T04:07:53.047Z,98.50
2022-08-05T04:10:30.950Z,98.70
2022-08-05T04:13:03.415Z,98.60
2022-08-05T04:15:33.259Z,98.80
2022-08-05T04:18:06.811Z,98.80
2022-08-05T04:20:37.524Z,98.90
2022-08-05T04:23:05.794Z,98.80
2022-08-05T04:25:58.028Z,98.80
2022-08-05T04:28:31.773Z,98.70
2022-08-05T04:31:01.582Z,98.90
2022-08-05T04:33:54.282Z,99.00
2022-08-05T04:36:46.287Z,99.00
2022-08-05T04:39:10.866Z,99.20
2022-08-05T04:41:41.560Z,99.20
2022-08-05T04:44:10.052Z,99.30
2022-08-05T04:46:39.886Z,99.20
2022-08-05T04:49:12.287Z,99.20
2022-08-05T04:51:45.390Z,99.20
2022-08-05T04:54:14.679Z,99.00
2022-08-05T04:56:43.694Z,99.30
2022-08-05T04:59:23.906Z,99.20
2022-08-05T05:02:08.031Z,99.30
2022-08-05T05:04:50.535Z,99.30
2022-08-05T05:07:23.878Z,99.30
2022-08-05T05:09:57.430Z,99.30
2022-08-05T05:12:27.424Z,99.20
2022-08-05T05:14:55.927Z,99.10
2022-08-05T05:17:55.761Z,99.20
2022-08-05T05:20:13.773Z,99.30
2022-08-05T05:22:44.119Z,99.30
2022-08-05T05:25:16.513Z,99.50
2022-08-05T05:27:53.445Z,99.30
2022-08-05T05:30:29.882Z,99.20
2022-08-05T05:33:03.890Z,99.20
2022-08-05T05:35:44.993Z,99.20
2022-08-05T05:38:14.955Z,99.30
2022-08-05T05:40:51.555Z,99.60
2022-08-05T05:43:56.790Z,99.70
2022-08-05T05:46:17.258Z,99.70
2022-08-05T05:48:47.979Z,99.70
2022-08-05T05:51:21.565Z,99.90
2022-08-05T05:53:57.409Z,99.90
2022-08-05T05:56:32.452Z,99.90
2022-08-05T05:59:05.470Z,99.90
2022-08-05T06:01:37.396Z,99.90
2022-08-05T06:04:07.481Z,99.90
2022-08-05T06:06:36.158Z,99.90
2022-08-05T06:09:07.619Z,99.90
2022-08-05T06:11:39.389Z,99.90
2022-08-05T06:14:07.778Z,99.90
2022-08-05T06:16:37.292Z,99.90
2022-08-05T06:19:07.324Z,99.90
2022-08-05T06:21:38.763Z,99.90
2022-08-05T06:24:14.682Z,99.90
2022-08-05T06:26:50.995Z,99.90
2022-08-05T06:29:46.593Z,99.90
2022-08-05T06:32:25.128Z,99.90
2022-08-05T06:34:56.673Z,99.90
2022-08-05T06:37:56.059Z,99.90
2022-08-05T06:40:18.434Z,99.90
2022-08-05T06:42:51.960Z,99.90
2022-08-05T06:45:44.015Z,99.90
2022-08-05T06:48:13.803Z,99.90
2022-08-05T06:50:58.604Z,99.90
2022-08-05T06:53:29.273Z,99.90
2022-08-05T06:56:00.351Z,99.90
2022-08-05T06:58:36.448Z,99.90
2022-08-05T07:01:07.316Z,99.90
2022-08-05T07:03:35.849Z,99.90
2022-08-05T07:06:14.439Z,99.90
2022-08-05T07:08:47.763Z,99.90
2022-08-05T07:11:22.220Z,99.90
2022-08-05T07:14:15.783Z,99.90
2022-08-05T07:17:59.468Z,99.90
2022-08-05T07:22:30.176Z,99.90
2022-08-05T07:25:09.523Z,99.90
2022-08-05T07:27:56.535Z,99.90
2022-08-05T07:30:32.806Z,99.90
2022-08-05T07:33:01.878Z,99.90
2022-08-05T07:35:56.711Z,99.90
2022-08-05T07:38:32.862Z,99.90
2022-08-05T07:42:09.231Z,99.90
2022-08-05T07:43:56.877Z,99.90
2022-08-05T07:46:26.764Z,99.90
2022-08-05T07:49:01.549Z,99.90
2022-08-05T07:51:40.403Z,99.90
2022-08-05T07:54:10.594Z,99.90
2022-08-05T07:57:14.860Z,99.90
2022-08-05T07:59:38.908Z,99.90
2022-08-05T08:02:15.385Z,99.90
2022-08-05T08:04:46.476Z,99.90
2022-08-05T08:07:15.469Z,99.90
2022-08-05T08:09:43.869Z,99.90
2022-08-05T08:12:48.891Z,99.90
2022-08-05T08:16:34.608Z,99.90
2022-08-05T08:18:49.970Z,99.90
2022-08-05T08:21:39.001Z,99.90
2022-08-05T08:24:51.048Z,99.90
2022-08-05T08:27:40.242Z,99.90
2022-08-05T08:30:29.744Z,99.90
2022-08-05T08:33:08.872Z,99.90
2022-08-05T08:35:53.970Z,99.90
2022-08-05T08:38:35.248Z,99.90
2022-08-05T08:41:08.502Z,99.90
2022-08-05T08:45:25.307Z,99.90
2022-08-05T08:46:29.018Z,99.90
2022-08-05T08:50:04.021Z,99.90
2022-08-05T08:52:05.950Z,99.90
2022-08-05T08:54:38.353Z,99.90
2022-08-05T08:57:13.341Z,99.90
2022-08-05T08:59:47.154Z,99.90
2022-08-05T09:02:19.102Z,99.90
2022-08-05T09:05:16.482Z,99.90
2022-08-05T09:07:39.763Z,99.90
2022-08-05T09:10:27.823Z,99.90
2022-08-05T09:13:04.913Z,99.90
2022-08-05T09:15:37.131Z,99.90
2022-08-05T09:18:08.727Z,99.90
2022-08-05T09:20:38.734Z,99.90
2022-08-05T09:23:18.980Z,99.90
2022-08-05T09:25:59.794Z,99.90
2022-08-05T09:28:33.509Z,99.90
2022-08-05T09:31:18.313Z,99.90
2022-08-05T09:33:56.582Z,99.90
2022-08-05T09:36:38.318Z,99.80
2022-08-05T09:39:18.042Z,99.70
2022-08-05T09:41:58.474Z,99.50
2022-08-05T09:44:38.228Z,99.40
2022-08-05T09:47:12.747Z,99.20
2022-08-05T09:49:57.067Z,99.10
2022-08-05T09:52:33.026Z,99.10
2022-08-05T09:55:55.654Z,99.00
2022-08-05T09:57:54.559Z,99.00
2022-08-05T10:00:27.550Z,99.20
2022-08-05T10:02:58.019Z,98.90
2022-08-05T10:05:29.171Z,98.80
2022-08-05T10:08:36.552Z,98.90
2022-08-05T10:10:54.136Z,98.80
2022-08-05T10:13:44.098Z,98.80
2022-08-05T10:16:41.998Z,98.60
2022-08-05T10:19:23.560Z,98.40
2022-08-05T10:22:00.465Z,98.40
2022-08-05T10:24:32.967Z,98.40
2022-08-05T10:27:01.455Z,98.30
2022-08-05T10:30:06.452Z,98.30
2022-08-05T10:32:54.071Z,98.20
2022-08-05T10:35:10.589Z,98.20
2022-08-05T10:37:44.597Z,98.10
2022-08-05T10:40:28.253Z,97.90
2022-08-05T10:43:02.243Z,97.80
2022-08-05T10:45:40.147Z,97.80
2022-08-05T10:48:40.653Z,97.80
2022-08-05T10:51:28.808Z,97.80
2022-08-05T10:54:01.079Z,97.70
2022-08-05T10:56:45.285Z,97.60
2022-08-05T11:00:03.289Z,97.60
2022-08-05T11:02:14.119Z,97.70
2022-08-05T11:04:46.119Z,97.60
2022-08-05T11:07:18.373Z,97.50
2022-08-05T11:10:09.481Z,97.60
2022-08-05T11:12:54.411Z,97.90
2022-08-05T11:16:01.049Z,97.70
2022-08-05T11:18:30.211Z,97.30
2022-08-05T11:21:02.583Z,97.20
2022-08-05T11:24:05.353Z,97.20
2022-08-05T11:26:29.013Z,97.10
2022-08-05T11:29:11.798Z,97.10
2022-08-05T11:31:57.639Z,97.00
2022-08-05T11:34:50.882Z,97.00
2022-08-05T11:38:28.117Z,97.00
2022-08-05T11:41:01.330Z,97.00
2022-08-05T11:44:05.410Z,97.00
2022-08-05T11:46:37.750Z,97.00
2022-08-05T11:49:25.763Z,97.00
2022-08-05T11:51:54.315Z,97.10
2022-08-05T11:54:33.573Z,97.10
2022-08-05T11:57:08.867Z,97.10
2022-08-05T11:59:54.532Z,97.20
2022-08-05T12:02:31.134Z,97.20
2022-08-05T12:05:07.385Z,97.20
2022-08-05T12:08:03.823Z,97.20
2022-08-05T12:10:43.430Z,97.40
2022-08-05T12:13:28.230Z,97.30
2022-08-05T12:16:14.959Z,97.20
2022-08-05T12:18:52.137Z,97.00
2022-08-05T12:21:24.341Z,97.00
2022-08-05T12:24:00.143Z,97.00
2022-08-05T12:26:33.958Z,96.90
2022-08-05T12:29:03.316Z,96.90
2022-08-05T12:31:43.739Z,96.90
2022-08-05T12:34:23.474Z,96.80
2022-08-05T12:36:53.186Z,96.70
2022-08-05T12:39:21.638Z,96.80
2022-08-05T12:41:58.036Z,96.70
2022-08-05T12:44:33.871Z,96.60
2022-08-05T12:47:03.648Z,96.50
2022-08-05T12:50:03.969Z,96.60
2022-08-05T12:52:39.679Z,96.50
2022-08-05T12:55:23.942Z,96.50
2022-08-05T12:58:51.533Z,96.60
2022-08-05T13:02:03.965Z,96.50
2022-08-05T13:03:33.281Z,96.50
2022-08-05T13:06:03.104Z,96.40
2022-08-05T13:08:32.353Z,96.50
2022-08-05T13:11:02.280Z,96.40
2022-08-05T13:14:05.324Z,96.10
2022-08-05T13:16:24.964Z,96.40
2022-08-05T13:18:55.214Z,96.30
2022-08-05T13:21:28.457Z,96.30
2022-08-05T13:24:08.681Z,96.30
2022-08-05T13:26:37.463Z,96.20
2022-08-05T13:29:05.802Z,96.10
2022-08-05T13:32:04.367Z,96.20
2022-08-05T13:34:26.027Z,96.10
2022-08-05T13:36:55.909Z,96.10
2022-08-05T13:40:13.110Z,96.10
2022-08-05T13:42:14.552Z,96.00
2022-08-05T13:44:45.858Z,96.10
2022-08-05T13:47:35.717Z,96.00
2022-08-05T13:50:06.825Z,96.00
2022-08-05T13:52:41.262Z,96.20
2022-08-05T13:55:09.977Z,95.90
2022-08-05T13:57:51.374Z,96.00
2022-08-05T14:00:27.314Z,96.00
2022-08-05T14:02:56.848Z,96.00
2022-08-05T14:05:47.948Z,95.90
2022-08-05T14:08:20.748Z,95.80
2022-08-05T14:10:59.630Z,95.90
2022-08-05T14:13:32.206Z,95.70
2022-08-05T14:16:04.881Z,95.70
2022-08-05T14:18:37.948Z,95.60
2022-08-05T14:22:06.846Z,95.70
2022-08-05T14:23:55.882Z,95.50
2022-08-05T14:26:36.879Z,95.50
2022-08-05T14:29:10.037Z,95.50
2022-08-05T14:32:02.830Z,95.50
2022-08-05T14:34:35.451Z,95.70
2022-08-05T14:37:04.442Z,95.40
2022-08-05T14:39:50.259Z,95.40
2022-08-05T14:42:23.271Z,95.30
2022-08-05T14:44:53.208Z,95.30
2022-08-05T14:47:58.474Z,95.30
2022-08-05T14:50:17.166Z,95.30
2022-08-05T14:52:57.825Z,95.40
2022-08-05T14:55:39.230Z,95.30
2022-08-05T14:58:10.904Z,95.20
2022-08-05T15:00:58.904Z,95.30
2022-08-05T15:03:33.306Z,95.20
2022-08-05T15:06:07.387Z,95.20
2022-08-05T15:08:59.461Z,95.20
2022-08-05T15:11:50.961Z,95.10
2022-08-05T15:14:33.425Z,95.10
2022-08-05T15:17:04.279Z,95.00
2022-08-05T15:19:32.868Z,95.00
2022-08-05T15:22:01.711Z,95.00
2022-08-05T15:24:30.294Z,95.10
2022-08-05T15:27:00.559Z,94.90
2022-08-05T15:29:30.149Z,95.00
2022-08-05T15:32:03.160Z,95.00
2022-08-05T15:34:33.831Z,95.00
2022-08-05T15:37:05.087Z,94.80
2022-08-05T15:41:01.898Z,94.70
2022-08-05T15:42:54.007Z,94.60
2022-08-05T15:45:13.365Z,94.50
2022-08-05T15:47:42.681Z,94.30
2022-08-05T15:50:15.488Z,94.40
2022-08-05T15:52:53.226Z,94.30
2022-08-05T15:55:25.003Z,94.20
2022-08-05T15:58:16.416Z,93.80
2022-08-05T16:01:03.452Z,94.00
2022-08-05T16:03:33.994Z,93.60
2022-08-05T16:06:02.428Z,93.40
2022-08-05T16:08:31.024Z,93.60
2022-08-05T16:10:59.780Z,93.30
2022-08-05T16:13:34.307Z,93.30
2022-08-05T16:16:03.767Z,93.10
2022-08-05T16:18:32.685Z,92.90
2022-08-05T16:21:04.203Z,92.70
2022-08-05T16:23:54.995Z,92.60
2022-08-05T16:26:26.493Z,92.40
2022-08-05T16:28:57.095Z,92.50
2022-08-05T16:31:26.193Z,92.20
2022-08-05T16:34:14.341Z,92.20
2022-08-05T16:36:42.941Z,91.90
2022-08-05T16:39:12.051Z,91.90
2022-08-05T16:42:13.585Z,91.70
2022-08-05T16:44:31.541Z,91.80
2022-08-05T16:46:59.825Z,91.80
2022-08-05T16:49:29.183Z,91.70
2022-08-05T16:51:57.361Z,91.70
2022-08-05T16:54:30.240Z,91.70
2022-08-05T16:57:00.100Z,91.70
2022-08-05T16:59:30.854Z,91.60
2022-08-05T17:02:00.956Z,91.40
2022-08-05T17:04:30.159Z,91.40
2022-08-05T17:07:01.518Z,91.30
2022-08-05T17:09:57.161Z,91.30
2022-08-05T17:12:22.567Z,91.20
2022-08-05T17:14:52.902Z,91.10
2022-08-05T17:17:22.852Z,91.20
2022-08-05T17:20:14.924Z,91.00
2022-08-05T17:22:44.935Z,91.00
2022-08-05T17:25:34.116Z,91.10
2022-08-05T17:28:01.235Z,91.10
2022-08-05T17:30:29.870Z,91.00
2022-08-05T17:32:59.282Z,90.90
2022-08-05T17:35:32.550Z,90.80
2022-08-05T17:38:15.449Z,90.60
2022-08-05T17:40:45.811Z,90.60
2022-08-05T17:43:15.686Z,90.60
2022-08-05T17:45:43.761Z,90.30
2022-08-05T17:48:14.340Z,89.70
2022-08-05T17:50:43.880Z,90.10
2022-08-05T17:53:12.068Z,89.60
2022-08-05T17:55:40.342Z,89.50
2022-08-05T17:58:14.558Z,89.30
2022-08-05T18:00:47.079Z,89.60
2022-08-05T18:06:11.018Z,90.30
2022-08-05T18:08:44.658Z,90.40
2022-08-05T18:11:24.817Z,90.30
2022-08-05T18:14:04.386Z,90.40
2022-08-05T18:16:33.620Z,90.60
2022-08-05T18:19:04.222Z,90.70
2022-08-05T18:22:08.285Z,90.70
2022-08-05T18:24:23.709Z,90.70
2022-08-05T18:26:55.594Z,90.70
2022-08-05T18:29:40.398Z,90.60
2022-08-05T18:32:12.943Z,90.80
2022-08-05T18:34:43.144Z,90.70
2022-08-05T18:37:12.675Z,90.50
2022-08-05T18:40:33.906Z,90.60
2022-08-05T18:42:47.643Z,90.80
2022-08-05T18:45:15.854Z,90.20
2022-08-05T18:47:43.998Z,90.00
2022-08-05T18:50:45.016Z,89.60
2022-08-05T18:53:19.154Z,89.00
2022-08-05T18:55:49.676Z,88.20
2022-08-05T18:58:18.481Z,88.00
2022-08-05T19:00:55.314Z,87.50
2022-08-05T19:03:53.433Z,87.00
2022-08-05T19:06:21.559Z,86.40
2022-08-05T19:08:50.787Z,85.70
2022-08-05T19:11:27.926Z,85.70
2022-08-05T19:14:00.972Z,85.50
2022-08-05T19:16:36.918Z,86.00
2022-08-05T19:19:15.704Z,85.20
2022-08-05T19:21:51.571Z,85.10
2022-08-05T19:24:34.461Z,84.90
2022-08-05T19:27:03.954Z,84.50
2022-08-05T19:29:36.440Z,83.80
2022-08-05T19:32:08.556Z,83.70
2022-08-05T19:34:40.079Z,83.50
2022-08-05T19:37:10.493Z,83.30
2022-08-05T19:39:45.931Z,82.70
2022-08-05T19:42:35.096Z,82.40
2022-08-05T19:45:05.600Z,82.40
2022-08-05T19:47:34.881Z,81.80
2022-08-05T19:50:07.571Z,82.10
2022-08-05T19:52:37.538Z,82.20
2022-08-05T19:55:07.317Z,81.90
2022-08-05T19:58:07.050Z,81.70
2022-08-05T20:00:42.450Z,81.60
2022-08-05T20:03:10.986Z,81.80
2022-08-05T20:05:50.292Z,81.60
2022-08-05T20:08:24.224Z,81.60
2022-08-05T20:10:55.593Z,81.70
2022-08-05T20:13:29.960Z,81.60
2022-08-05T20:16:12.752Z,81.60
2022-08-05T20:18:48.245Z,81.80
2022-08-05T20:21:25.355Z,82.00
2022-08-05T20:23:54.808Z,82.20
2022-08-05T20:26:25.631Z,82.50
2022-08-05T20:28:56.382Z,82.50
2022-08-05T20:31:37.034Z,82.60
2022-08-05T20:34:14.968Z,82.90
2022-08-05T20:36:43.833Z,83.10
2022-08-05T20:39:16.738Z,83.30
2022-08-05T20:41:46.612Z,83.50
2022-08-05T20:44:30.377Z,83.40
2022-08-05T20:46:59.693Z,83.40
2022-08-05T20:49:27.865Z,83.40
2022-08-05T20:51:57.278Z,83.60
2022-08-05T20:54:43.413Z,83.50
2022-08-05T20:57:24.562Z,83.60
2022-08-05T21:00:20.054Z,83.50
2022-08-05T21:03:00.011Z,83.70
2022-08-05T21:05:48.431Z,83.80
2022-08-05T21:08:18.046Z,83.60
2022-08-05T21:10:49.391Z,83.50
2022-08-05T21:13:37.838Z,83.40
2022-08-05T21:16:06.910Z,83.40
2022-08-05T21:18:35.911Z,83.10
2022-08-05T21:21:04.206Z,83.40
2022-08-05T21:23:37.193Z,83.10
2022-08-05T21:26:14.348Z,83.40
2022-08-05T21:28:47.874Z,83.00
2022-08-05T21:31:19.423Z,82.90
2022-08-05T21:33:49.465Z,83.00
2022-08-05T21:36:19.079Z,82.60
2022-08-05T21:38:56.078Z,82.60
2022-08-05T21:41:25.952Z,82.60
2022-08-05T21:44:04.182Z,82.40
2022-08-05T21:46:34.477Z,82.60
2022-08-05T21:49:07.180Z,82.30
2022-08-05T21:52:22.618Z,82.20
2022-08-05T21:54:30.869Z,82.00
2022-08-05T21:57:31.724Z,81.90
2022-08-05T22:00:03.280Z,82.00
2022-08-05T22:02:41.802Z,81.90
2022-08-05T22:05:11.497Z,81.40
2022-08-05T22:07:58.323Z,81.50
2022-08-05T22:10:28.158Z,81.80
2022-08-05T22:13:08.742Z,81.50
2022-08-05T22:16:00.990Z,81.50
2022-08-05T22:18:27.068Z,81.30
2022-08-05T22:20:55.771Z,81.20
2022-08-05T22:24:02.980Z,81.30
2022-08-05T22:26:50.546Z,81.20
2022-08-05T22:29:26.889Z,81.20
2022-08-05T22:32:02.620Z,81.40
2022-08-05T22:34:32.236Z,81.10
2022-08-05T22:37:01.209Z,81.30
2022-08-05T22:39:33.973Z,81.10
2022-08-05T22:42:09.443Z,80.90
2022-08-05T22:44:42.486Z,81.00
2022-08-05T22:47:29.795Z,81.20
2022-08-05T22:50:21.528Z,81.00
2022-08-05T22:52:48.564Z,81.40
2022-08-05T22:55:19.513Z,81.00
2022-08-05T22:57:49.802Z,81.00
2022-08-05T23:00:21.506Z,81.30
2022-08-05T23:02:50.512Z,81.10
2022-08-05T23:05:22.040Z,80.90
2022-08-05T23:07:51.127Z,80.80
2022-08-05T23:10:20.681Z,80.90
2022-08-05T23:12:54.191Z,80.70
2022-08-05T23:15:29.364Z,80.50
2022-08-05T23:18:02.208Z,79.90
2022-08-05T23:20:32.680Z,80.30
2022-08-05T23:23:03.624Z,79.90
2022-08-05T23:25:52.524Z,80.10
2022-08-05T23:28:23.848Z,79.40
2022-08-05T23:30:54.643Z,79.20
2022-08-05T23:33:26.499Z,78.70
2022-08-05T23:36:13.873Z,78.90
2022-08-05T23:38:43.556Z,78.90
2022-08-05T23:41:12.373Z,78.10
2022-08-05T23:44:05.010Z,78.40
2022-08-05T23:46:31.383Z,77.80
2022-08-05T23:49:03.791Z,77.30
2022-08-05T23:52:02.770Z,77.00
2022-08-05T23:54:38.189Z,76.50
2022-08-05T23:57:08.242Z,76.50
